Time;durP1;ratioP1;P1;durP2;ratioP2;P2;SDS_P1;SDS_P2;PMS_P1;PMS_P2;Temp;Humidity;BMP_temperature;BMP_pressure;BME280_temperature;BME280_humidity;BME280_pressure;Samples;Min_cycle;Max_cycle;Signal;HPM_P1;HPM_P2
2022/09/15 00:00:50;;;;;;;;;;;24.40;99.90;;;;;;5051068;28;20025;-71
2022/09/15 00:03:17;;;;;;;2.97;1.05;;;24.40;99.90;;;;;;5050802;28;19905;-71
2022/09/15 00:05:43;;;;;;;3.83;1.10;;;24.40;99.90;;;;;;5050840;28;20056;-70
2022/09/15 00:08:11;;;;;;;3.20;1.23;;;24.30;99.90;;;;;;5050643;28;20025;-71
2022/09/15 00:10:46;;;;;;;6.50;1.20;;;24.40;99.90;;;;;;5050501;28;20029;-70
2022/09/15 00:13:12;;;;;;;1.90;0.93;;;24.30;99.90;;;;;;5050419;28;20063;-70
2022/09/15 00:15:38;;;;;;;6.20;1.08;;;24.30;99.90;;;;;;5050509;28;20431;-71
2022/09/15 00:18:06;;;;;;;3.30;1.17;;;24.30;99.90;;;;;;5050804;28;20013;-71
2022/09/15 00:20:32;;;;;;;4.65;1.13;;;24.30;99.90;;;;;;5050810;28;20048;-71
2022/09/15 00:22:58;;;;;;;4.75;1.13;;;24.40;99.90;;;;;;5050468;28;20025;-70
2022/09/15 00:25:24;;;;;;;4.65;1.15;;;24.40;99.90;;;;;;5050300;28;20025;-70
2022/09/15 00:27:50;;;;;;;3.72;1.15;;;24.40;99.90;;;;;;5049025;28;20036;-70
2022/09/15 00:30:16;;;;;;;2.50;0.93;;;24.40;99.90;;;;;;5050303;28;20056;-70
2022/09/15 00:32:42;;;;;;;5.90;1.30;;;24.40;99.90;;;;;;5050996;28;20132;-70
2022/09/15 00:35:08;;;;;;;2.75;1.05;;;24.40;99.90;;;;;;5054473;28;20200;-72
2022/09/15 00:37:34;;;;;;;6.05;1.20;;;24.40;99.90;;;;;;5054628;28;20052;-71
2022/09/15 00:40:00;;;;;;;4.95;1.30;;;24.50;99.90;;;;;;5054501;28;20013;-71
2022/09/15 00:42:26;;;;;;;3.08;1.20;;;24.40;99.90;;;;;;5054108;28;20041;-71
2022/09/15 00:44:58;;;;;;;4.35;1.20;;;24.40;99.90;;;;;;5054301;28;20021;-71
2022/09/15 00:47:33;;;;;;;4.72;1.20;;;24.40;99.90;;;;;;5054116;28;20032;-72
2022/09/15 00:50:17;;;;;;;3.55;1.20;;;24.50;99.90;;;;;;5053023;28;20108;-71
2022/09/15 00:52:48;;;;;;;4.40;1.35;;;24.40;99.90;;;;;;5054095;28;20021;-71
2022/09/15 00:55:32;;;;;;;11.23;1.23;;;24.40;99.90;;;;;;5054186;28;20032;-71
2022/09/15 00:58:11;;;;;;;4.82;1.20;;;24.40;99.90;;;;;;5054115;28;20056;-71
2022/09/15 01:00:43;;;;;;;5.90;1.45;;;24.40;99.90;;;;;;5053693;28;20120;-71
2022/09/15 01:03:10;;;;;;;4.47;1.10;;;24.30;99.90;;;;;;5054148;28;20052;-71
2022/09/15 01:05:41;;;;;;;;;;;24.30;99.90;;;;;;5054313;28;20025;-72
2022/09/15 01:08:18;;;;;;;5.40;1.20;;;24.30;99.90;;;;;;5053877;28;19978;-71
2022/09/15 01:10:45;;;;;;;3.63;1.20;;;24.30;99.90;;;;;;5053717;28;20380;-71
2022/09/15 01:13:13;;;;;;;4.18;1.50;;;24.40;99.90;;;;;;5053911;28;20049;-71
2022/09/15 01:15:48;;;;;;;4.55;1.20;;;24.40;99.90;;;;;;5053783;28;20017;-71
2022/09/15 01:18:31;;;;;;;4.07;1.40;;;24.40;99.90;;;;;;5053761;28;20389;-71
2022/09/15 01:21:16;;;;;;;3.85;1.40;;;24.40;99.90;;;;;;5053838;28;20118;-71
2022/09/15 01:24:27;;;;;;;4.43;1.30;;;24.40;99.90;;;;;;5053796;28;20029;-71
2022/09/15 01:27:05;;;;;;;3.38;1.20;;;24.40;99.90;;;;;;5051768;28;20127;-71
2022/09/15 01:29:55;;;;;;;4.63;1.33;;;24.40;99.90;;;;;;5053176;28;20028;-72
2022/09/15 01:33:04;;;;;;;4.90;1.50;;;24.30;99.90;;;;;;5053543;28;20045;-71
2022/09/15 01:35:39;;;;;;;5.43;1.10;;;24.20;99.90;;;;;;5053498;28;20100;-71
2022/09/15 01:38:29;;;;;;;5.28;1.20;;;24.20;99.90;;;;;;5053127;28;20021;-71
2022/09/15 01:41:07;;;;;;;4.20;1.27;;;24.20;99.90;;;;;;5053419;28;20033;-71
2022/09/15 01:43:38;;;;;;;4.80;1.27;;;24.20;99.90;;;;;;5053497;28;20453;-71
2022/09/15 01:46:07;;;;;;;4.10;1.42;;;24.20;99.90;;;;;;5050679;28;20037;-71
2022/09/15 01:48:35;;;;;;;4.45;1.20;;;24.20;99.90;;;;;;5052994;28;20072;-71
2022/09/15 01:51:04;;;;;;;4.60;1.35;;;24.20;99.90;;;;;;5052880;28;20044;-71
2022/09/15 01:53:31;;;;;;;3.28;1.33;;;24.20;99.90;;;;;;5053220;28;20107;-72
2022/09/15 01:56:05;;;;;;;2.72;1.25;;;24.20;99.90;;;;;;5052818;28;20025;-71
2022/09/15 01:58:33;;;;;;;4.03;1.10;;;24.20;99.90;;;;;;5053213;28;20021;-72
2022/09/15 02:01:28;;;;;;;4.57;1.40;;;24.10;99.90;;;;;;5052635;28;20041;-71
2022/09/15 02:04:09;;;;;;;3.22;1.20;;;24.10;99.90;;;;;;5052363;28;20056;-71
2022/09/15 02:06:58;;;;;;;4.07;1.17;;;24.10;99.90;;;;;;5053061;28;20090;-71
2022/09/15 02:09:32;;;;;;;4.82;1.10;;;24.10;99.90;;;;;;5053131;28;20121;-72
2022/09/15 02:12:11;;;;;;;4.07;1.27;;;24.10;99.90;;;;;;5051559;28;20025;-71
2022/09/15 02:14:54;;;;;;;3.10;1.30;;;24.10;99.90;;;;;;5051017;28;20116;-71
2022/09/15 02:17:21;;;;;;;5.43;1.38;;;24.10;99.90;;;;;;5050770;28;20381;-71
2022/09/15 02:19:56;;;;;;;4.47;1.40;;;24.10;99.90;;;;;;5052380;28;20025;-71
2022/09/15 02:22:26;;;;;;;3.27;1.17;;;24.10;99.90;;;;;;5052696;28;20104;-71
2022/09/15 02:25:04;;;;;;;6.63;1.60;;;24.10;99.90;;;;;;5052755;28;20330;-71
2022/09/15 02:27:36;;;;;;;4.15;1.23;;;24.10;99.90;;;;;;5052672;28;20112;-72
2022/09/15 02:30:10;;;;;;;5.18;1.30;;;24.20;99.90;;;;;;5052594;28;20119;-72
2022/09/15 02:32:41;;;;;;;3.00;1.20;;;24.10;99.90;;;;;;5052514;28;20140;-71
2022/09/15 02:35:08;;;;;;;4.50;1.40;;;24.00;99.90;;;;;;5052360;28;20028;-71
2022/09/15 02:37:36;;;;;;;3.05;1.13;;;24.00;99.90;;;;;;5052368;28;20040;-71
2022/09/15 02:40:02;;;;;;;3.40;1.10;;;24.10;99.90;;;;;;5052270;28;20055;-71
2022/09/15 02:42:31;;;;;;;3.75;1.13;;;24.10;99.90;;;;;;5051726;28;20029;-71
2022/09/15 02:44:59;;;;;;;4.90;1.20;;;24.20;99.90;;;;;;5051594;28;20159;-71
2022/09/15 02:47:27;;;;;;;4.38;1.60;;;24.20;99.90;;;;;;5051367;28;20072;-71
2022/09/15 02:49:53;;;;;;;4.90;1.42;;;24.20;99.90;;;;;;5051255;28;20033;-71
2022/09/15 02:52:19;;;;;;;;;;;24.30;99.90;;;;;;5051839;28;20151;-71
2022/09/15 02:54:46;;;;;;;;;;;24.20;99.90;;;;;;5051473;28;19905;-71
2022/09/15 02:57:13;;;;;;;;;;;24.20;99.90;;;;;;5051865;28;19905;-71
2022/09/15 03:02:30;;;;;;;3.65;1.30;;;24.10;99.90;;;;;;5051821;28;20044;-71
2022/09/15 03:04:56;;;;;;;5.45;1.50;;;24.10;99.90;;;;;;5051816;28;20117;-71
2022/09/15 03:07:23;;;;;;;6.38;1.30;;;24.10;99.90;;;;;;5051868;28;20044;-71
2022/09/15 03:09:49;;;;;;;6.93;1.20;;;24.20;99.90;;;;;;5050429;28;20105;-71
2022/09/15 03:12:16;;;;;;;5.30;1.20;;;24.20;99.90;;;;;;5050243;28;20477;-71
2022/09/15 03:14:43;;;;;;;5.32;1.20;;;24.20;99.90;;;;;;5052076;28;20021;-71
2022/09/15 03:17:09;;;;;;;3.83;0.90;;;24.10;99.90;;;;;;5051634;28;20029;-71
2022/09/15 03:19:35;;;;;;;6.15;1.30;;;24.10;99.90;;;;;;5051561;28;20039;-71
2022/09/15 03:22:01;;;;;;;3.70;1.20;;;24.10;99.90;;;;;;5051533;28;20029;-72
2022/09/15 03:24:27;;;;;;;3.95;1.45;;;24.00;99.90;;;;;;5052456;28;20021;-71
2022/09/15 03:26:53;;;;;;;4.75;1.55;;;23.90;99.90;;;;;;5052596;28;20045;-71
2022/09/15 03:29:19;;;;;;;5.78;1.40;;;23.90;99.90;;;;;;5052683;28;20322;-71
2022/09/15 03:31:45;;;;;;;5.47;1.60;;;23.80;99.90;;;;;;5052297;28;20516;-71
2022/09/15 03:34:11;;;;;;;4.78;1.40;;;23.80;99.90;;;;;;5052992;28;20075;-71
2022/09/15 03:36:37;;;;;;;4.25;1.30;;;23.70;99.90;;;;;;5052877;28;20086;-71
2022/09/15 03:39:03;;;;;;;5.22;1.50;;;23.70;99.90;;;;;;5051251;28;20029;-71
2022/09/15 03:41:29;;;;;;;3.67;1.40;;;23.70;99.90;;;;;;5052460;28;20433;-71
2022/09/15 03:43:56;;;;;;;8.65;1.50;;;23.70;99.90;;;;;;5052345;28;20040;-71
2022/09/15 03:46:22;;;;;;;4.22;1.30;;;23.70;99.90;;;;;;5052162;28;20106;-71
2022/09/15 03:48:48;;;;;;;4.57;1.73;;;23.70;99.90;;;;;;5052329;28;20456;-71
2022/09/15 03:51:14;;;;;;;5.45;1.40;;;23.70;99.90;;;;;;5052306;28;20029;-71
2022/09/15 03:53:41;;;;;;;4.80;1.42;;;23.70;99.90;;;;;;5050867;28;20027;-71
2022/09/15 03:56:15;;;;;;;2.97;1.30;;;23.60;99.90;;;;;;5050921;28;20024;-71
2022/09/15 03:58:41;;;;;;;4.53;1.67;;;23.60;99.90;;;;;;5052465;28;20021;-72
2022/09/15 04:01:08;;;;;;;4.47;1.23;;;23.60;99.90;;;;;;5052033;28;20032;-71
2022/09/15 04:03:34;;;;;;;;;;;23.60;99.90;;;;;;5051108;28;20034;-71
2022/09/15 04:05:59;;;;;;;;;;;23.70;99.90;;;;;;5052911;28;19912;-72
2022/09/15 04:08:25;;;;;;;5.20;1.50;;;23.70;99.90;;;;;;5053665;28;19911;-71
2022/09/15 04:10:53;;;;;;;5.40;1.65;;;23.80;99.90;;;;;;5056334;28;20029;-71
2022/09/15 04:13:20;;;;;;;5.60;1.23;;;23.80;99.90;;;;;;5054918;28;20025;-71
2022/09/15 04:15:46;;;;;;;6.70;1.40;;;23.80;99.90;;;;;;5055945;28;20410;-71
2022/09/15 04:18:12;;;;;;;4.30;1.15;;;23.80;99.90;;;;;;5056721;28;20074;-71
2022/09/15 04:20:39;;;;;;;5.13;1.35;;;23.80;99.90;;;;;;5055000;28;20502;-71
2022/09/15 04:23:05;;;;;;;4.72;1.63;;;23.80;99.90;;;;;;5056535;28;20032;-71
2022/09/15 04:25:31;;;;;;;5.10;1.48;;;23.80;99.90;;;;;;5056841;28;20159;-71
2022/09/15 04:27:57;;;;;;;4.57;1.38;;;23.80;99.90;;;;;;5056816;28;20025;-71
2022/09/15 04:30:23;;;;;;;5.30;1.45;;;23.80;99.90;;;;;;5054722;28;20060;-71
2022/09/15 04:32:50;;;;;;;6.95;1.55;;;23.80;99.90;;;;;;5056819;28;20096;-71
2022/09/15 04:35:16;;;;;;;5.35;1.50;;;23.80;99.90;;;;;;5056652;28;20025;-71
2022/09/15 04:37:42;;;;;;;5.07;1.42;;;23.80;99.90;;;;;;5056822;28;20028;-71
2022/09/15 04:40:10;;;;;;;5.50;1.60;;;23.80;99.90;;;;;;5056707;28;20025;-71
2022/09/15 04:42:36;;;;;;;3.88;1.55;;;23.80;99.90;;;;;;5055473;28;20134;-71
2022/09/15 04:45:02;;;;;;;9.40;1.67;;;23.80;99.90;;;;;;5056083;28;20090;-71
2022/09/15 04:47:28;;;;;;;4.35;1.60;;;23.90;99.90;;;;;;5056493;28;20125;-71
2022/09/15 04:49:54;;;;;;;6.60;1.60;;;23.90;99.90;;;;;;5056383;28;20029;-71
2022/09/15 04:52:20;;;;;;;6.47;1.50;;;23.90;99.90;;;;;;5056415;28;20124;-71
2022/09/15 04:54:46;;;;;;;7.72;1.90;;;23.90;99.90;;;;;;5055970;28;20079;-71
2022/09/15 04:57:12;;;;;;;4.82;1.85;;;24.00;99.90;;;;;;5055759;28;20489;-71
2022/09/15 04:59:38;;;;;;;5.35;1.67;;;24.00;99.90;;;;;;5055916;28;20485;-71
2022/09/15 05:02:04;;;;;;;5.47;1.60;;;24.10;99.90;;;;;;5055733;28;20074;-71
2022/09/15 05:04:30;;;;;;;6.82;1.60;;;24.10;99.90;;;;;;5055779;28;20063;-71
2022/09/15 05:06:56;;;;;;;8.50;1.75;;;24.10;99.90;;;;;;5054115;28;20060;-71
2022/09/15 05:09:22;;;;;;;5.50;1.67;;;24.10;99.90;;;;;;5055502;28;20025;-71
2022/09/15 05:11:48;;;;;;;5.82;1.60;;;24.20;99.90;;;;;;5054018;28;20025;-71
2022/09/15 05:14:15;;;;;;;10.85;1.70;;;24.20;99.90;;;;;;5055271;28;20028;-71
2022/09/15 05:16:41;;;;;;;15.25;2.38;;;24.30;99.90;;;;;;5055709;28;20031;-72
2022/09/15 05:19:08;;;;;;;9.02;1.75;;;24.30;99.90;;;;;;5055361;28;20025;-71
2022/09/15 05:21:34;;;;;;;11.65;1.73;;;24.40;99.90;;;;;;5055127;28;20029;-71
2022/09/15 05:24:02;;;;;;;7.43;2.03;;;24.50;99.90;;;;;;5053901;28;20066;-72
2022/09/15 05:26:28;;;;;;;4.70;1.50;;;24.70;99.90;;;;;;5055798;28;20025;-72
2022/09/15 05:28:56;;;;;;;7.93;1.65;;;24.80;99.90;;;;;;5055576;28;20544;-72
2022/09/15 05:31:25;;;;;;;7.18;1.40;;;24.80;99.90;;;;;;5054534;28;20056;-72
2022/09/15 05:33:52;;;;;;;6.35;1.50;;;24.90;99.90;;;;;;5054084;28;20024;-72
2022/09/15 05:36:20;;;;;;;7.18;1.80;;;25.10;99.90;;;;;;5053959;28;20071;-72
2022/09/15 05:38:46;;;;;;;8.75;1.65;;;25.40;99.90;;;;;;5054267;28;20341;-72
2022/09/15 05:41:25;;;;;;;;;;;25.90;99.90;;;;;;5054658;28;20036;-72
2022/09/15 05:43:56;;;;;;;10.18;2.10;;;26.30;99.90;;;;;;5053489;28;19912;-72
2022/09/15 05:46:24;;;;;;;5.97;1.77;;;26.60;99.90;;;;;;5052239;28;20069;-72
2022/09/15 05:48:53;;;;;;;10.43;1.80;;;26.70;99.90;;;;;;5052264;28;20047;-72
2022/09/15 05:51:19;;;;;;;9.10;2.10;;;27.30;99.90;;;;;;5053122;28;20468;-72
2022/09/15 05:53:45;;;;;;;5.75;1.38;;;28.20;99.90;;;;;;5050813;28;20021;-72
2022/09/15 05:56:13;;;;;;;6.38;1.50;;;28.90;99.90;;;;;;5052317;28;20087;-72
2022/09/15 05:58:40;;;;;;;6.70;1.50;;;29.30;99.90;;;;;;5051428;28;20021;-72
2022/09/15 06:01:10;;;;;;;8.80;1.48;;;30.00;99.90;;;;;;5052253;28;20091;-71
2022/09/15 06:03:36;;;;;;;5.82;1.40;;;30.10;99.90;;;;;;5052629;28;20016;-72
2022/09/15 06:06:04;;;;;;;4.00;1.20;;;30.40;99.90;;;;;;5053242;28;20032;-72
2022/09/15 06:08:36;;;;;;;4.50;1.20;;;30.90;99.90;;;;;;5052933;28;20222;-72
2022/09/15 06:11:04;;;;;;;18.65;2.00;;;30.30;99.90;;;;;;5053608;28;20025;-72
2022/09/15 06:13:30;;;;;;;4.47;1.02;;;30.90;99.90;;;;;;5053181;28;20020;-72
2022/09/15 06:16:04;;;;;;;5.63;1.40;;;31.00;99.90;;;;;;5053167;28;20028;-72
2022/09/15 06:18:31;;;;;;;4.75;1.10;;;31.50;99.90;;;;;;5052020;28;20116;-71
2022/09/15 06:21:01;;;;;;;10.75;1.38;;;32.00;99.90;;;;;;5053286;28;20028;-71
2022/09/15 06:23:27;;;;;;;10.27;1.42;;;32.30;99.90;;;;;;5051900;28;20120;-72
2022/09/15 06:25:53;;;;;;;;;;;33.30;99.90;;;;;;5053079;28;20037;-71
2022/09/15 06:28:19;;;;;;;6.18;1.20;;;34.00;99.90;;;;;;5053157;28;20042;-72
2022/09/15 06:30:48;;;;;;;6.00;1.10;;;33.70;99.90;;;;;;5052357;28;20481;-71
2022/09/15 06:33:15;;;;;;;11.82;1.27;;;34.50;99.90;;;;;;5052963;28;20044;-72
2022/09/15 06:35:41;;;;;;;4.60;1.20;;;35.00;99.90;;;;;;5051369;28;20024;-72
2022/09/15 06:38:07;;;;;;;7.97;1.30;;;34.30;99.90;;;;;;5052822;28;20033;-73
2022/09/15 06:40:33;;;;;;;4.75;1.00;;;35.20;99.90;;;;;;5052905;28;20060;-71
2022/09/15 06:42:59;;;;;;;6.15;1.00;;;36.20;99.90;;;;;;5051469;28;20024;-71
2022/09/15 06:45:25;;;;;;;10.52;1.20;;;36.50;99.90;;;;;;5052519;28;20404;-72
2022/09/15 06:47:51;;;;;;;5.68;1.27;;;36.90;99.90;;;;;;5052678;28;20064;-72
2022/09/15 06:50:17;;;;;;;7.32;1.13;;;37.10;99.90;;;;;;5052741;28;20098;-71
2022/09/15 06:52:44;;;;;;;7.40;1.10;;;36.90;99.90;;;;;;5052641;28;20032;-72
2022/09/15 06:55:10;;;;;;;5.30;1.10;;;37.20;99.90;;;;;;5052640;28;20060;-72
2022/09/15 06:57:36;;;;;;;8.73;1.25;;;37.60;99.90;;;;;;5050929;28;20060;-72
2022/09/15 07:00:04;;;;;;;6.95;1.35;;;37.90;99.90;;;;;;5052166;28;20056;-72
2022/09/15 07:02:30;;;;;;;4.88;0.98;;;38.70;99.90;;;;;;5052061;28;20162;-72
2022/09/15 07:04:58;;;;;;;3.90;0.95;;;38.40;99.90;;;;;;5051838;28;20059;-71
2022/09/15 07:07:24;;;;;;;10.20;1.15;;;38.80;99.90;;;;;;5051960;28;20064;-71
2022/09/15 07:09:50;;;;;;;4.47;1.08;;;38.90;99.90;;;;;;5052564;28;20104;-72
2022/09/15 07:12:16;;;;;;;3.38;0.90;;;38.90;99.90;;;;;;5052231;28;20108;-71
2022/09/15 07:14:42;;;;;;;4.10;1.10;;;38.60;99.90;;;;;;5052177;28;20423;-71
2022/09/15 07:17:08;;;;;;;4.80;1.20;;;38.40;99.90;;;;;;5052679;28;20029;-71
2022/09/15 07:19:34;;;;;;;7.43;1.45;;;37.60;99.90;;;;;;5052729;28;20032;-71
2022/09/15 07:22:10;;;;;;;7.35;1.48;;;37.10;99.90;;;;;;5052485;28;20074;-72
2022/09/15 07:24:36;;;;;;;5.60;1.50;;;37.20;99.90;;;;;;5051920;28;20029;-71
2022/09/15 07:27:02;;;;;;;5.75;1.40;;;37.00;99.90;;;;;;5052070;28;20056;-71
2022/09/15 07:29:28;;;;;;;7.45;2.00;;;36.00;99.90;;;;;;5052004;28;20159;-72
2022/09/15 07:31:54;;;;;;;10.43;1.20;;;34.80;99.90;;;;;;5051814;28;20136;-73
2022/09/15 07:34:21;;;;;;;16.20;1.60;;;33.50;99.90;;;;;;5052174;28;20036;-73
2022/09/15 07:36:47;;;;;;;9.45;1.73;;;33.20;99.90;;;;;;5052785;28;20021;-72
2022/09/15 07:39:13;;;;;;;;;;;32.40;99.90;;;;;;5052719;28;20420;-71
2022/09/15 07:41:39;;;;;;;5.82;1.40;;;32.20;99.90;;;;;;5051655;28;19905;-71
2022/09/15 07:44:05;;;;;;;;;;;31.80;99.90;;;;;;5051734;28;20039;-71
2022/09/15 07:46:32;;;;;;;7.53;1.42;;;31.50;99.90;;;;;;5051921;28;20361;-72
2022/09/15 07:48:59;;;;;;;9.48;1.67;;;31.80;99.90;;;;;;5051861;28;20048;-73
2022/09/15 07:51:25;;;;;;;7.40;1.70;;;31.80;99.90;;;;;;5051272;28;20446;-73
2022/09/15 07:53:52;;;;;;;6.22;1.70;;;31.80;99.90;;;;;;5051108;28;20044;-72
2022/09/15 07:56:18;;;;;;;9.35;2.90;;;32.10;99.90;;;;;;5051062;28;20037;-71
2022/09/15 07:58:48;;;;;;;8.57;2.20;;;32.00;99.90;;;;;;5050767;28;20094;-71
2022/09/15 08:01:16;;;;;;;8.32;2.10;;;31.90;99.90;;;;;;5050409;28;20408;-71
2022/09/15 08:03:45;;;;;;;3.72;1.50;;;31.90;99.90;;;;;;5050295;28;20033;-71
2022/09/15 08:06:12;;;;;;;7.75;1.90;;;32.00;99.90;;;;;;5049252;28;20355;-72
2022/09/15 08:08:39;;;;;;;6.65;1.60;;;32.00;99.90;;;;;;5050806;28;20029;-73
2022/09/15 08:11:11;;;;;;;7.25;1.90;;;32.00;99.90;;;;;;5048682;28;20025;-71
2022/09/15 08:13:37;;;;;;;5.45;1.40;;;32.30;99.90;;;;;;5050759;28;20100;-71
2022/09/15 08:16:11;;;;;;;;;;;32.50;99.90;;;;;;5050787;28;20098;-71
2022/09/15 08:18:38;;;;;;;6.95;1.38;;;32.70;99.90;;;;;;5051102;28;19916;-72
2022/09/15 08:21:06;;;;;;;4.13;1.45;;;32.60;99.90;;;;;;5051540;28;20527;-72
2022/09/15 08:23:32;;;;;;;4.03;1.63;;;32.10;99.90;;;;;;5051236;28;20032;-72
2022/09/15 08:25:58;;;;;;;3.72;1.23;;;32.40;99.90;;;;;;5049717;28;20029;-72
2022/09/15 08:28:25;;;;;;;;;;;32.60;99.90;;;;;;5051744;28;20056;-72
2022/09/15 08:31:01;;;;;;;8.00;2.75;;;32.70;99.90;;;;;;5050713;28;20284;-72
2022/09/15 08:33:28;;;;;;;7.10;1.48;;;32.90;99.90;;;;;;5050955;28;20028;-72
2022/09/15 08:35:59;;;;;;;7.80;1.92;;;33.00;99.90;;;;;;5051307;28;20485;-72
2022/09/15 08:38:26;;;;;;;8.52;1.63;;;33.20;99.90;;;;;;5049918;28;20166;-72
2022/09/15 08:41:05;;;;;;;4.85;1.50;;;33.10;99.90;;;;;;5051383;28;20025;-72
2022/09/15 08:43:43;;;;;;;4.28;1.30;;;33.10;99.90;;;;;;5051172;28;20036;-72
2022/09/15 08:46:15;;;;;;;5.35;1.75;;;33.30;99.90;;;;;;5049549;28;20044;-72
2022/09/15 08:49:10;;;;;;;6.95;1.95;;;33.50;99.90;;;;;;5051110;28;20468;-72
2022/09/15 08:51:45;;;;;;;9.68;1.60;;;33.40;99.90;;;;;;5050947;28;20021;-72
2022/09/15 08:54:20;;;;;;;5.30;1.48;;;33.30;99.90;;;;;;5052265;28;20035;-72
2022/09/15 08:56:47;;;;;;;5.68;1.40;;;32.40;99.90;;;;;;5054909;28;20071;-72
2022/09/15 08:59:15;;;;;;;17.15;1.85;;;32.30;99.90;;;;;;5054815;28;20029;-72
2022/09/15 09:01:59;;;;;;;7.22;1.60;;;32.20;99.90;;;;;;5054713;28;20033;-72
2022/09/15 09:04:28;;;;;;;5.82;1.98;;;32.30;99.90;;;;;;5054665;28;20048;-72
2022/09/15 09:07:13;;;;;;;7.68;1.40;;;32.50;99.90;;;;;;5054532;28;20079;-72
2022/09/15 09:09:39;;;;;;;5.85;1.42;;;32.50;99.90;;;;;;5054474;28;20025;-71
2022/09/15 09:12:42;;;;;;;4.07;1.40;;;32.10;99.90;;;;;;5054088;28;20469;-71
2022/09/15 09:15:23;;;;;;;5.63;1.58;;;32.10;99.90;;;;;;5054218;28;20423;-71
2022/09/15 09:18:10;;;;;;;6.28;1.40;;;32.00;99.90;;;;;;5052223;28;20503;-71
2022/09/15 09:20:59;;;;;;;5.72;1.48;;;31.80;99.90;;;;;;5053697;28;20039;-71
2022/09/15 09:23:29;;;;;;;9.75;1.45;;;31.60;99.90;;;;;;5051818;28;20029;-71
2022/09/15 09:25:57;;;;;;;3.03;1.20;;;31.40;99.90;;;;;;5053142;28;20028;-71
2022/09/15 09:28:34;;;;;;;7.00;1.70;;;31.20;99.90;;;;;;5053340;28;20069;-72
2022/09/15 09:31:06;;;;;;;6.28;1.52;;;31.30;99.90;;;;;;5051655;28;20068;-71
2022/09/15 09:33:49;;;;;;;5.60;1.10;;;31.50;99.90;;;;;;5053381;28;20150;-72
2022/09/15 09:36:16;;;;;;;5.07;1.40;;;31.80;99.90;;;;;;5053882;28;20381;-71
2022/09/15 09:38:43;;;;;;;;;;;31.70;99.90;;;;;;5054379;28;20031;-72
2022/09/15 09:41:34;;;;;;;5.05;1.38;;;31.60;99.90;;;;;;5053994;28;19904;-72
2022/09/15 09:44:03;;;;;;;4.55;1.60;;;31.70;99.90;;;;;;5053878;28;20025;-72
2022/09/15 09:46:30;;;;;;;7.00;1.60;;;31.50;99.90;;;;;;5053349;28;20040;-72
2022/09/15 09:49:04;;;;;;;6.13;1.33;;;31.50;99.90;;;;;;5053876;28;20102;-72
2022/09/15 09:51:36;;;;;;;5.07;1.40;;;31.60;99.90;;;;;;5053389;28;20092;-72
2022/09/15 09:54:15;;;;;;;6.18;1.50;;;31.30;99.90;;;;;;5051867;28;20044;-71
2022/09/15 09:56:42;;;;;;;8.52;1.50;;;31.30;99.90;;;;;;5053200;28;20025;-72
2022/09/15 09:59:37;;;;;;;6.78;1.40;;;31.50;99.90;;;;;;5053477;28;20021;-72
2022/09/15 10:02:24;;;;;;;7.13;1.60;;;31.60;99.90;;;;;;5053053;28;20111;-72
2022/09/15 10:05:04;;;;;;;6.72;1.38;;;31.40;99.90;;;;;;5051726;28;20032;-71
2022/09/15 10:07:32;;;;;;;5.10;1.42;;;31.20;99.90;;;;;;5051623;28;20307;-72
2022/09/15 10:10:00;;;;;;;6.40;1.70;;;31.20;99.90;;;;;;5052731;28;20029;-72
2022/09/15 10:12:37;;;;;;;4.75;1.30;;;31.20;99.90;;;;;;5053208;28;20394;-72
2022/09/15 10:15:06;;;;;;;5.00;1.50;;;31.40;99.90;;;;;;5053327;28;20045;-72
2022/09/15 10:17:35;;;;;;;5.18;1.65;;;31.60;99.90;;;;;;5053118;28;20043;-72
2022/09/15 10:20:04;;;;;;;4.18;1.40;;;31.80;99.90;;;;;;5053404;28;20116;-71
2022/09/15 10:22:37;;;;;;;5.15;1.55;;;31.90;99.90;;;;;;5052947;28;20017;-72
2022/09/15 10:25:25;;;;;;;8.98;1.70;;;32.20;99.90;;;;;;5052826;28;20029;-72
2022/09/15 10:28:16;;;;;;;3.65;1.40;;;32.30;99.90;;;;;;5051367;28;20401;-71
2022/09/15 10:31:05;;;;;;;8.52;1.52;;;32.50;99.90;;;;;;5053004;28;20080;-71
2022/09/15 10:33:33;;;;;;;7.60;1.83;;;32.90;99.90;;;;;;5052452;28;20051;-71
2022/09/15 10:36:18;;;;;;;6.68;1.60;;;33.20;99.90;;;;;;5053134;28;20075;-71
2022/09/15 10:38:51;;;;;;;5.68;1.33;;;33.30;99.90;;;;;;5053265;28;20024;-72
2022/09/15 10:41:28;;;;;;;4.13;1.50;;;33.50;99.90;;;;;;5052821;28;20539;-72
2022/09/15 10:44:27;;;;;;;3.75;1.20;;;33.20;99.90;;;;;;5051496;28;20036;-71
2022/09/15 10:47:20;;;;;;;7.07;1.30;;;33.10;99.90;;;;;;5030832;28;20045;-72
2022/09/15 10:50:04;;;;;;;7.75;1.77;;;33.10;99.90;;;;;;5030876;28;20033;-71
2022/09/15 10:52:56;;;;;;;6.47;1.50;;;32.90;99.90;;;;;;5030242;28;20491;-71
2022/09/15 10:55:59;;;;;;;3.95;1.38;;;32.90;99.90;;;;;;5030048;28;20123;-71
2022/09/15 10:58:38;;;;;;;6.75;1.77;;;32.70;99.90;;;;;;4971016;28;20067;-72
2022/09/15 11:01:27;;;;;;;3.60;1.25;;;32.50;99.90;;;;;;4971216;28;20062;-72
2022/09/15 11:04:02;;;;;;;4.85;1.40;;;32.40;99.90;;;;;;4971360;28;20030;-70
2022/09/15 11:07:02;;;;;;;6.80;1.50;;;32.50;99.90;;;;;;4970524;28;20550;-72
2022/09/15 11:09:37;;;;;;;7.05;1.40;;;32.40;99.90;;;;;;4970317;28;20053;-71
2022/09/15 11:12:24;;;;;;;6.88;1.50;;;32.30;99.90;;;;;;4970466;28;20114;-71
2022/09/15 11:15:25;;;;;;;5.80;1.35;;;32.50;99.90;;;;;;4970514;28;20033;-71
2022/09/15 11:18:10;;;;;;;5.13;1.48;;;32.50;99.90;;;;;;4913995;29;20055;-71
2022/09/15 11:20:56;;;;;;;6.93;1.27;;;32.60;99.90;;;;;;4914157;29;20044;-71
2022/09/15 11:23:32;;;;;;;2.72;1.17;;;32.70;99.90;;;;;;4930079;29;20392;-71
2022/09/15 11:26:18;;;;;;;4.85;1.58;;;32.70;99.90;;;;;;4933046;29;20046;-71
2022/09/15 11:29:06;;;;;;;6.85;1.52;;;32.50;99.90;;;;;;4933475;29;20039;-72
2022/09/15 11:31:41;;;;;;;5.95;1.40;;;32.60;99.90;;;;;;4932995;29;20063;-71
2022/09/15 11:34:29;;;;;;;6.97;1.73;;;32.80;99.90;;;;;;4940820;28;20497;-71
2022/09/15 11:37:10;;;;;;;6.10;1.70;;;33.00;99.90;;;;;;4971245;28;20093;-71
2022/09/15 11:40:00;;;;;;;7.18;1.20;;;33.00;99.90;;;;;;4971652;28;20061;-71
2022/09/15 11:42:43;;;;;;;4.25;1.23;;;32.90;99.90;;;;;;4971673;28;20366;-71
2022/09/15 11:45:34;;;;;;;6.28;1.55;;;33.00;99.90;;;;;;4971058;28;20041;-71
2022/09/15 11:48:14;;;;;;;10.38;2.17;;;32.80;99.90;;;;;;4971121;28;20122;-71
2022/09/15 11:50:44;;;;;;;7.00;2.10;;;32.60;99.90;;;;;;4954975;28;20078;-71
2022/09/15 11:53:21;;;;;;;7.25;1.40;;;32.60;99.90;;;;;;5002097;28;20040;-71
2022/09/15 11:56:18;;;;;;;3.00;1.20;;;32.60;99.90;;;;;;5051702;28;20025;-71
2022/09/15 11:59:02;;;;;;;6.03;1.42;;;32.50;99.90;;;;;;5051693;28;20029;-71
2022/09/15 12:01:38;;;;;;;7.03;1.50;;;32.20;99.90;;;;;;5052222;28;20021;-71
2022/09/15 12:04:11;;;;;;;3.80;1.10;;;32.00;99.90;;;;;;5050360;28;20454;-71
2022/09/15 12:06:59;;;;;;;5.93;1.60;;;32.00;99.90;;;;;;5052220;28;20029;-71
2022/09/15 12:09:25;;;;;;;5.00;1.50;;;32.10;99.90;;;;;;5052023;28;20449;-71
2022/09/15 12:12:02;;;;;;;7.40;1.77;;;32.00;99.90;;;;;;5051689;28;20032;-71
2022/09/15 12:14:41;;;;;;;15.68;2.00;;;32.00;99.90;;;;;;5051833;28;20358;-71
2022/09/15 12:17:17;;;;;;;6.75;2.00;;;32.00;99.90;;;;;;5052413;28;20036;-71
2022/09/15 12:20:05;;;;;;;8.77;1.75;;;32.10;99.90;;;;;;5052396;28;20489;-71
2022/09/15 12:22:42;;;;;;;3.83;1.20;;;32.10;99.90;;;;;;5052201;28;20087;-71
2022/09/15 12:25:39;;;;;;;11.30;1.80;;;32.10;99.90;;;;;;5052371;28;20025;-71
2022/09/15 12:28:21;;;;;;;6.55;1.20;;;32.00;99.90;;;;;;5052468;28;20029;-72
2022/09/15 12:30:48;;;;;;;26.98;3.10;;;31.90;99.90;;;;;;5055876;28;20044;-71
2022/09/15 12:33:42;;;;;;;10.77;1.80;;;31.80;99.90;;;;;;5054677;28;20029;-71
2022/09/15 12:36:33;;;;;;;5.03;1.45;;;31.70;99.90;;;;;;5055971;28;20102;-71
2022/09/15 12:39:01;;;;;;;12.80;2.47;;;31.30;99.90;;;;;;5055884;28;20033;-71
2022/09/15 12:41:27;;;;;;;12.55;1.70;;;31.20;99.90;;;;;;5056015;28;20017;-71
2022/09/15 12:44:11;;;;;;;6.13;1.58;;;31.10;99.90;;;;;;5055571;28;20067;-71
2022/09/15 12:46:37;;;;;;;6.13;1.73;;;31.10;99.90;;;;;;5055879;28;20112;-71
2022/09/15 12:49:03;;;;;;;7.78;1.52;;;31.30;99.90;;;;;;5055689;28;20025;-71
2022/09/15 12:51:29;;;;;;;;;;;31.40;99.90;;;;;;5055827;28;20029;-71
2022/09/15 12:53:59;;;;;;;7.32;1.65;;;31.40;99.90;;;;;;5055232;28;19909;-71
2022/09/15 12:56:28;;;;;;;4.78;1.58;;;31.60;99.90;;;;;;5055523;28;20044;-71
2022/09/15 12:58:55;;;;;;;5.25;1.60;;;31.80;99.90;;;;;;5055642;28;20063;-71
2022/09/15 13:01:24;;;;;;;7.55;1.70;;;31.90;99.90;;;;;;5055547;28;20025;-71
2022/09/15 13:03:50;;;;;;;5.22;1.42;;;32.00;99.90;;;;;;5055515;28;20100;-71
2022/09/15 13:06:34;;;;;;;8.50;1.80;;;32.00;99.90;;;;;;5053469;28;20461;-71
2022/09/15 13:09:00;;;;;;;8.82;1.38;;;31.80;99.90;;;;;;5055272;28;20433;-71
2022/09/15 13:11:49;;;;;;;6.57;1.60;;;31.70;99.90;;;;;;5055197;28;20021;-73
2022/09/15 13:14:36;;;;;;;5.63;1.50;;;31.60;99.90;;;;;;5053604;28;20454;-71
2022/09/15 13:17:15;;;;;;;4.75;1.73;;;31.40;99.90;;;;;;5055367;28;20028;-70
2022/09/15 13:20:10;;;;;;;5.53;1.75;;;31.40;99.90;;;;;;5053746;28;20021;-71